sensor_id;sensor_type;location;lat;lon;timestamp;P1;durP1;ratioP1;P2;durP2;ratioP2
65418;SDS011;52027;50.658;14.004;2022-11-20T00:00:40;11.45;;;7.28;;
65418;SDS011;52027;50.658;14.004;2022-11-20T00:03:06;12.13;;;7.35;;
65418;SDS011;52027;50.658;14.004;2022-11-20T00:05:34;11.48;;;7.35;;
65418;SDS011;52027;50.658;14.004;2022-11-20T00:07:59;12.50;;;7.25;;
65418;SDS011;52027;50.658;14.004;2022-11-20T00:10:25;12.38;;;7.55;;
65418;SDS011;52027;50.658;14.004;2022-11-20T00:12:50;11.98;;;7.35;;
65418;SDS011;52027;50.658;14.004;2022-11-20T00:15:15;12.30;;;7.45;;
65418;SDS011;52027;50.658;14.004;2022-11-20T00:17:41;12.25;;;7.55;;
65418;SDS011;52027;50.658;14.004;2022-11-20T00:20:06;12.73;;;7.90;;
65418;SDS011;52027;50.658;14.004;2022-11-20T00:22:32;12.82;;;7.97;;
65418;SDS011;52027;50.658;14.004;2022-11-20T00:24:57;12.10;;;7.10;;
65418;SDS011;52027;50.658;14.004;2022-11-20T00:27:23;13.43;;;7.93;;
65418;SDS011;52027;50.658;14.004;2022-11-20T00:29:48;13.07;;;7.85;;
65418;SDS011;52027;50.658;14.004;2022-11-20T00:32:14;12.93;;;7.72;;
65418;SDS011;52027;50.658;14.004;2022-11-20T00:34:39;12.15;;;7.85;;
65418;SDS011;52027;50.658;14.004;2022-11-20T00:37:04;13.07;;;7.70;;
65418;SDS011;52027;50.658;14.004;2022-11-20T00:39:30;12.88;;;7.80;;
65418;SDS011;52027;50.658;14.004;2022-11-20T00:41:55;12.30;;;7.72;;
65418;SDS011;52027;50.658;14.004;2022-11-20T00:44:20;11.77;;;7.60;;
65418;SDS011;52027;50.658;14.004;2022-11-20T00:46:46;13.60;;;8.10;;
65418;SDS011;52027;50.658;14.004;2022-11-20T00:49:11;12.73;;;7.70;;
65418;SDS011;52027;50.658;14.004;2022-11-20T00:51:36;12.48;;;7.78;;
65418;SDS011;52027;50.658;14.004;2022-11-20T00:54:02;12.13;;;7.68;;
65418;SDS011;52027;50.658;14.004;2022-11-20T00:56:27;13.05;;;7.65;;
65418;SDS011;52027;50.658;14.004;2022-11-20T00:58:53;12.55;;;8.13;;
65418;SDS011;52027;50.658;14.004;2022-11-20T01:01:19;12.23;;;7.70;;
65418;SDS011;52027;50.658;14.004;2022-11-20T01:03:50;12.45;;;7.18;;
65418;SDS011;52027;50.658;14.004;2022-11-20T01:06:21;12.55;;;7.82;;
65418;SDS011;52027;50.658;14.004;2022-11-20T01:08:49;12.75;;;7.93;;
65418;SDS011;52027;50.658;14.004;2022-11-20T01:11:16;13.93;;;8.15;;
65418;SDS011;52027;50.658;14.004;2022-11-20T01:13:44;12.88;;;7.97;;
65418;SDS011;52027;50.658;14.004;2022-11-20T01:16:15;13.07;;;7.95;;
65418;SDS011;52027;50.658;14.004;2022-11-20T01:18:42;11.40;;;7.28;;
65418;SDS011;52027;50.658;14.004;2022-11-20T01:21:10;11.40;;;7.53;;
65418;SDS011;52027;50.658;14.004;2022-11-20T01:23:38;13.52;;;8.32;;
65418;SDS011;52027;50.658;14.004;2022-11-20T01:26:05;14.02;;;8.45;;
65418;SDS011;52027;50.658;14.004;2022-11-20T01:28:32;13.25;;;8.05;;
65418;SDS011;52027;50.658;14.004;2022-11-20T01:30:58;13.95;;;8.15;;
65418;SDS011;52027;50.658;14.004;2022-11-20T01:33:24;13.02;;;8.15;;
65418;SDS011;52027;50.658;14.004;2022-11-20T01:35:50;14.68;;;8.45;;
65418;SDS011;52027;50.658;14.004;2022-11-20T01:38:16;12.88;;;7.88;;
65418;SDS011;52027;50.658;14.004;2022-11-20T01:40:42;12.43;;;8.18;;
65418;SDS011;52027;50.658;14.004;2022-11-20T01:43:14;13.82;;;8.30;;
65418;SDS011;52027;50.658;14.004;2022-11-20T01:51:00;14.60;;;8.60;;
65418;SDS011;52027;50.658;14.004;2022-11-20T01:53:28;13.45;;;8.27;;
65418;SDS011;52027;50.658;14.004;2022-11-20T01:55:58;12.63;;;7.95;;
65418;SDS011;52027;50.658;14.004;2022-11-20T01:58:30;14.73;;;8.13;;
65418;SDS011;52027;50.658;14.004;2022-11-20T02:01:00;14.25;;;8.30;;
65418;SDS011;52027;50.658;14.004;2022-11-20T02:03:26;13.38;;;8.00;;
65418;SDS011;52027;50.658;14.004;2022-11-20T02:05:57;13.25;;;8.18;;
65418;SDS011;52027;50.658;14.004;2022-11-20T02:08:47;12.90;;;8.18;;
65418;SDS011;52027;50.658;14.004;2022-11-20T02:11:12;13.02;;;8.20;;
65418;SDS011;52027;50.658;14.004;2022-11-20T02:13:37;13.80;;;8.52;;
65418;SDS011;52027;50.658;14.004;2022-11-20T02:16:19;13.30;;;8.43;;
65418;SDS011;52027;50.658;14.004;2022-11-20T02:18:47;12.18;;;8.00;;
65418;SDS011;52027;50.658;14.004;2022-11-20T02:21:37;14.98;;;8.60;;
65418;SDS011;52027;50.658;14.004;2022-11-20T02:26:41;12.68;;;8.05;;
65418;SDS011;52027;50.658;14.004;2022-11-20T02:29:10;12.73;;;8.23;;
65418;SDS011;52027;50.658;14.004;2022-11-20T02:31:36;14.15;;;8.20;;
65418;SDS011;52027;50.658;14.004;2022-11-20T02:34:05;13.55;;;8.20;;
65418;SDS011;52027;50.658;14.004;2022-11-20T02:36:30;13.73;;;9.07;;
65418;SDS011;52027;50.658;14.004;2022-11-20T02:38:57;13.15;;;8.25;;
65418;SDS011;52027;50.658;14.004;2022-11-20T02:41:30;13.65;;;8.15;;
65418;SDS011;52027;50.658;14.004;2022-11-20T02:43:59;13.13;;;8.13;;
65418;SDS011;52027;50.658;14.004;2022-11-20T02:46:24;13.60;;;8.02;;
65418;SDS011;52027;50.658;14.004;2022-11-20T02:48:49;12.38;;;8.15;;
65418;SDS011;52027;50.658;14.004;2022-11-20T02:51:15;13.90;;;8.38;;
65418;SDS011;52027;50.658;14.004;2022-11-20T02:53:40;14.25;;;8.38;;
65418;SDS011;52027;50.658;14.004;2022-11-20T02:56:05;12.57;;;8.15;;
65418;SDS011;52027;50.658;14.004;2022-11-20T02:58:31;13.80;;;8.10;;
65418;SDS011;52027;50.658;14.004;2022-11-20T03:00:57;12.95;;;7.95;;
65418;SDS011;52027;50.658;14.004;2022-11-20T03:03:22;13.32;;;8.30;;
65418;SDS011;52027;50.658;14.004;2022-11-20T03:05:47;13.38;;;8.40;;
65418;SDS011;52027;50.658;14.004;2022-11-20T03:08:13;13.85;;;8.43;;
65418;SDS011;52027;50.658;14.004;2022-11-20T03:10:38;14.18;;;8.43;;
65418;SDS011;52027;50.658;14.004;2022-11-20T03:13:03;13.43;;;8.48;;
65418;SDS011;52027;50.658;14.004;2022-11-20T03:15:29;13.38;;;8.40;;
65418;SDS011;52027;50.658;14.004;2022-11-20T03:17:54;13.50;;;8.18;;
65418;SDS011;52027;50.658;14.004;2022-11-20T03:20:20;13.65;;;8.18;;
65418;SDS011;52027;50.658;14.004;2022-11-20T03:22:46;13.45;;;8.20;;
65418;SDS011;52027;50.658;14.004;2022-11-20T03:25:11;12.95;;;8.30;;
65418;SDS011;52027;50.658;14.004;2022-11-20T03:27:37;13.75;;;8.70;;
65418;SDS011;52027;50.658;14.004;2022-11-20T03:30:02;13.68;;;8.50;;
65418;SDS011;52027;50.658;14.004;2022-11-20T03:32:28;12.82;;;8.07;;
65418;SDS011;52027;50.658;14.004;2022-11-20T03:34:53;14.35;;;8.90;;
65418;SDS011;52027;50.658;14.004;2022-11-20T03:37:19;12.25;;;7.95;;
65418;SDS011;52027;50.658;14.004;2022-11-20T03:39:44;13.32;;;8.35;;
65418;SDS011;52027;50.658;14.004;2022-11-20T03:42:10;14.82;;;8.65;;
65418;SDS011;52027;50.658;14.004;2022-11-20T03:44:53;12.07;;;8.32;;
65418;SDS011;52027;50.658;14.004;2022-11-20T03:47:19;12.75;;;8.38;;
65418;SDS011;52027;50.658;14.004;2022-11-20T03:49:44;13.45;;;8.52;;
65418;SDS011;52027;50.658;14.004;2022-11-20T03:52:10;13.70;;;8.77;;
65418;SDS011;52027;50.658;14.004;2022-11-20T03:54:35;11.90;;;7.55;;
65418;SDS011;52027;50.658;14.004;2022-11-20T03:57:00;13.25;;;8.48;;
65418;SDS011;52027;50.658;14.004;2022-11-20T03:59:25;14.52;;;8.70;;
65418;SDS011;52027;50.658;14.004;2022-11-20T04:01:51;13.50;;;8.43;;
65418;SDS011;52027;50.658;14.004;2022-11-20T04:04:16;14.50;;;8.50;;
65418;SDS011;52027;50.658;14.004;2022-11-20T04:06:42;13.65;;;8.55;;
65418;SDS011;52027;50.658;14.004;2022-11-20T04:09:07;12.60;;;8.10;;
65418;SDS011;52027;50.658;14.004;2022-11-20T04:11:33;13.45;;;8.43;;
65418;SDS011;52027;50.658;14.004;2022-11-20T04:14:00;13.57;;;8.52;;
65418;SDS011;52027;50.658;14.004;2022-11-20T04:16:31;13.85;;;8.57;;
65418;SDS011;52027;50.658;14.004;2022-11-20T04:18:59;12.70;;;7.90;;
65418;SDS011;52027;50.658;14.004;2022-11-20T04:21:26;12.85;;;8.10;;
65418;SDS011;52027;50.658;14.004;2022-11-20T04:23:51;13.43;;;8.30;;
65418;SDS011;52027;50.658;14.004;2022-11-20T04:26:21;12.68;;;8.30;;
65418;SDS011;52027;50.658;14.004;2022-11-20T04:28:47;12.77;;;8.30;;
65418;SDS011;52027;50.658;14.004;2022-11-20T04:31:14;12.38;;;8.23;;
65418;SDS011;52027;50.658;14.004;2022-11-20T04:33:41;13.93;;;8.40;;
65418;SDS011;52027;50.658;14.004;2022-11-20T04:36:10;13.02;;;8.15;;
65418;SDS011;52027;50.658;14.004;2022-11-20T04:38:37;14.15;;;8.70;;
65418;SDS011;52027;50.658;14.004;2022-11-20T04:41:03;14.27;;;8.40;;
65418;SDS011;52027;50.658;14.004;2022-11-20T04:43:30;13.05;;;8.35;;
65418;SDS011;52027;50.658;14.004;2022-11-20T04:45:57;13.05;;;8.25;;
65418;SDS011;52027;50.658;14.004;2022-11-20T04:48:23;13.32;;;8.40;;
65418;SDS011;52027;50.658;14.004;2022-11-20T04:50:49;14.43;;;8.48;;
65418;SDS011;52027;50.658;14.004;2022-11-20T04:53:15;12.43;;;7.93;;
65418;SDS011;52027;50.658;14.004;2022-11-20T04:55:40;13.27;;;8.45;;
65418;SDS011;52027;50.658;14.004;2022-11-20T04:58:06;13.32;;;8.23;;
65418;SDS011;52027;50.658;14.004;2022-11-20T05:00:32;12.98;;;8.10;;
65418;SDS011;52027;50.658;14.004;2022-11-20T05:02:57;13.52;;;8.27;;
65418;SDS011;52027;50.658;14.004;2022-11-20T05:05:22;13.02;;;8.20;;
65418;SDS011;52027;50.658;14.004;2022-11-20T05:07:48;13.32;;;8.23;;
65418;SDS011;52027;50.658;14.004;2022-11-20T05:10:13;12.43;;;8.02;;
65418;SDS011;52027;50.658;14.004;2022-11-20T05:12:39;13.90;;;8.40;;
65418;SDS011;52027;50.658;14.004;2022-11-20T05:15:04;13.27;;;8.40;;
65418;SDS011;52027;50.658;14.004;2022-11-20T05:17:30;12.18;;;8.00;;
65418;SDS011;52027;50.658;14.004;2022-11-20T05:19:55;13.02;;;8.18;;
65418;SDS011;52027;50.658;14.004;2022-11-20T05:22:21;13.93;;;8.40;;
65418;SDS011;52027;50.658;14.004;2022-11-20T05:24:46;14.38;;;8.52;;
65418;SDS011;52027;50.658;14.004;2022-11-20T05:27:11;13.35;;;8.50;;
65418;SDS011;52027;50.658;14.004;2022-11-20T05:29:37;11.82;;;7.80;;
65418;SDS011;52027;50.658;14.004;2022-11-20T05:32:02;12.48;;;8.00;;
65418;SDS011;52027;50.658;14.004;2022-11-20T05:34:27;12.45;;;7.85;;
65418;SDS011;52027;50.658;14.004;2022-11-20T05:36:53;12.65;;;8.10;;
65418;SDS011;52027;50.658;14.004;2022-11-20T05:39:18;13.20;;;8.25;;
65418;SDS011;52027;50.658;14.004;2022-11-20T05:41:43;11.82;;;8.00;;
65418;SDS011;52027;50.658;14.004;2022-11-20T05:44:12;11.90;;;7.78;;
65418;SDS011;52027;50.658;14.004;2022-11-20T05:46:38;11.48;;;7.85;;
65418;SDS011;52027;50.658;14.004;2022-11-20T05:49:03;12.65;;;8.35;;
65418;SDS011;52027;50.658;14.004;2022-11-20T05:51:29;13.55;;;8.50;;
65418;SDS011;52027;50.658;14.004;2022-11-20T05:53:56;14.82;;;7.93;;
65418;SDS011;52027;50.658;14.004;2022-11-20T05:56:22;12.82;;;8.13;;
65418;SDS011;52027;50.658;14.004;2022-11-20T05:58:48;13.25;;;8.13;;
65418;SDS011;52027;50.658;14.004;2022-11-20T06:01:16;13.75;;;8.30;;
65418;SDS011;52027;50.658;14.004;2022-11-20T06:03:44;12.10;;;8.02;;
65418;SDS011;52027;50.658;14.004;2022-11-20T06:06:13;12.70;;;8.15;;
65418;SDS011;52027;50.658;14.004;2022-11-20T06:08:39;12.93;;;8.18;;
65418;SDS011;52027;50.658;14.004;2022-11-20T06:11:08;11.80;;;8.05;;
65418;SDS011;52027;50.658;14.004;2022-11-20T06:13:35;12.65;;;8.20;;
65418;SDS011;52027;50.658;14.004;2022-11-20T06:16:01;12.75;;;8.13;;
65418;SDS011;52027;50.658;14.004;2022-11-20T06:18:27;12.20;;;8.02;;
65418;SDS011;52027;50.658;14.004;2022-11-20T06:21:04;12.13;;;8.13;;
65418;SDS011;52027;50.658;14.004;2022-11-20T06:23:37;12.50;;;8.20;;
65418;SDS011;52027;50.658;14.004;2022-11-20T06:26:04;13.30;;;8.32;;
65418;SDS011;52027;50.658;14.004;2022-11-20T06:28:31;13.32;;;8.30;;
65418;SDS011;52027;50.658;14.004;2022-11-20T06:30:56;12.50;;;7.82;;
65418;SDS011;52027;50.658;14.004;2022-11-20T06:33:22;12.02;;;7.78;;
65418;SDS011;52027;50.658;14.004;2022-11-20T06:35:47;13.55;;;8.10;;
65418;SDS011;52027;50.658;14.004;2022-11-20T06:38:13;11.80;;;7.63;;
65418;SDS011;52027;50.658;14.004;2022-11-20T06:40:41;12.43;;;7.78;;
65418;SDS011;52027;50.658;14.004;2022-11-20T06:43:08;13.18;;;7.95;;
65418;SDS011;52027;50.658;14.004;2022-11-20T06:45:34;12.35;;;8.05;;
65418;SDS011;52027;50.658;14.004;2022-11-20T06:48:00;13.02;;;8.30;;
65418;SDS011;52027;50.658;14.004;2022-11-20T06:50:25;11.95;;;7.82;;
65418;SDS011;52027;50.658;14.004;2022-11-20T06:52:50;12.80;;;8.00;;
65418;SDS011;52027;50.658;14.004;2022-11-20T06:55:16;11.93;;;7.85;;
65418;SDS011;52027;50.658;14.004;2022-11-20T06:57:41;11.57;;;7.60;;
65418;SDS011;52027;50.658;14.004;2022-11-20T07:00:06;12.95;;;8.30;;
65418;SDS011;52027;50.658;14.004;2022-11-20T07:02:32;12.38;;;7.75;;
65418;SDS011;52027;50.658;14.004;2022-11-20T07:04:57;12.93;;;8.10;;
65418;SDS011;52027;50.658;14.004;2022-11-20T07:07:23;12.73;;;8.05;;
65418;SDS011;52027;50.658;14.004;2022-11-20T07:09:48;11.77;;;8.07;;
65418;SDS011;52027;50.658;14.004;2022-11-20T07:12:14;12.00;;;7.72;;
65418;SDS011;52027;50.658;14.004;2022-11-20T07:14:39;13.25;;;8.38;;
65418;SDS011;52027;50.658;14.004;2022-11-20T07:17:04;11.73;;;7.63;;
65418;SDS011;52027;50.658;14.004;2022-11-20T07:19:29;12.13;;;8.00;;
65418;SDS011;52027;50.658;14.004;2022-11-20T07:21:55;12.02;;;7.93;;
65418;SDS011;52027;50.658;14.004;2022-11-20T07:24:20;13.27;;;8.43;;
65418;SDS011;52027;50.658;14.004;2022-11-20T07:26:46;12.43;;;7.78;;
65418;SDS011;52027;50.658;14.004;2022-11-20T07:29:13;12.07;;;7.97;;
65418;SDS011;52027;50.658;14.004;2022-11-20T07:31:38;11.65;;;7.90;;
65418;SDS011;52027;50.658;14.004;2022-11-20T07:34:03;12.85;;;8.18;;
65418;SDS011;52027;50.658;14.004;2022-11-20T07:36:28;11.82;;;7.60;;
65418;SDS011;52027;50.658;14.004;2022-11-20T07:38:54;12.93;;;7.68;;
65418;SDS011;52027;50.658;14.004;2022-11-20T07:41:19;11.38;;;7.75;;
65418;SDS011;52027;50.658;14.004;2022-11-20T07:43:44;12.88;;;7.90;;
65418;SDS011;52027;50.658;14.004;2022-11-20T07:46:10;12.70;;;8.05;;
65418;SDS011;52027;50.658;14.004;2022-11-20T07:48:35;12.48;;;8.30;;
65418;SDS011;52027;50.658;14.004;2022-11-20T07:51:01;11.77;;;7.70;;
65418;SDS011;52027;50.658;14.004;2022-11-20T07:53:26;12.80;;;7.75;;
65418;SDS011;52027;50.658;14.004;2022-11-20T07:55:51;11.98;;;7.80;;
65418;SDS011;52027;50.658;14.004;2022-11-20T07:58:17;11.40;;;7.28;;
65418;SDS011;52027;50.658;14.004;2022-11-20T08:00:44;11.90;;;7.55;;
65418;SDS011;52027;50.658;14.004;2022-11-20T08:03:09;12.50;;;7.68;;
65418;SDS011;52027;50.658;14.004;2022-11-20T08:05:34;12.45;;;7.50;;
65418;SDS011;52027;50.658;14.004;2022-11-20T08:08:00;12.18;;;7.80;;
65418;SDS011;52027;50.658;14.004;2022-11-20T08:10:25;11.85;;;7.75;;
65418;SDS011;52027;50.658;14.004;2022-11-20T08:12:51;11.75;;;7.80;;
65418;SDS011;52027;50.658;14.004;2022-11-20T08:15:35;11.40;;;7.40;;
65418;SDS011;52027;50.658;14.004;2022-11-20T08:18:03;12.00;;;7.82;;
65418;SDS011;52027;50.658;14.004;2022-11-20T08:20:30;12.32;;;7.90;;
65418;SDS011;52027;50.658;14.004;2022-11-20T08:22:59;12.23;;;7.78;;
65418;SDS011;52027;50.658;14.004;2022-11-20T08:25:30;12.02;;;7.75;;
65418;SDS011;52027;50.658;14.004;2022-11-20T08:28:00;12.45;;;7.93;;
65418;SDS011;52027;50.658;14.004;2022-11-20T08:30:27;10.85;;;7.75;;
65418;SDS011;52027;50.658;14.004;2022-11-20T08:32:53;11.77;;;7.60;;
65418;SDS011;52027;50.658;14.004;2022-11-20T08:35:19;11.45;;;7.63;;
65418;SDS011;52027;50.658;14.004;2022-11-20T08:37:48;12.10;;;7.80;;
65418;SDS011;52027;50.658;14.004;2022-11-20T08:40:14;12.55;;;7.85;;
65418;SDS011;52027;50.658;14.004;2022-11-20T08:42:49;11.77;;;7.78;;
65418;SDS011;52027;50.658;14.004;2022-11-20T08:45:16;11.82;;;7.40;;
65418;SDS011;52027;50.658;14.004;2022-11-20T08:47:42;11.30;;;7.78;;
65418;SDS011;52027;50.658;14.004;2022-11-20T08:50:08;11.77;;;7.60;;
65418;SDS011;52027;50.658;14.004;2022-11-20T08:52:35;11.30;;;7.57;;
65418;SDS011;52027;50.658;14.004;2022-11-20T08:55:00;11.43;;;7.40;;
65418;SDS011;52027;50.658;14.004;2022-11-20T08:57:25;11.05;;;7.28;;
65418;SDS011;52027;50.658;14.004;2022-11-20T08:59:51;12.45;;;7.85;;
65418;SDS011;52027;50.658;14.004;2022-11-20T09:02:16;12.88;;;7.90;;
65418;SDS011;52027;50.658;14.004;2022-11-20T09:04:41;11.32;;;7.22;;
65418;SDS011;52027;50.658;14.004;2022-11-20T09:07:06;10.80;;;7.32;;
65418;SDS011;52027;50.658;14.004;2022-11-20T09:09:32;12.18;;;7.80;;
65418;SDS011;52027;50.658;14.004;2022-11-20T09:11:58;12.05;;;7.55;;
65418;SDS011;52027;50.658;14.004;2022-11-20T09:14:23;12.73;;;7.78;;
65418;SDS011;52027;50.658;14.004;2022-11-20T09:16:53;11.57;;;7.55;;
65418;SDS011;52027;50.658;14.004;2022-11-20T09:19:19;11.50;;;7.78;;
65418;SDS011;52027;50.658;14.004;2022-11-20T09:21:45;11.63;;;7.28;;
65418;SDS011;52027;50.658;14.004;2022-11-20T09:24:10;11.40;;;7.65;;
65418;SDS011;52027;50.658;14.004;2022-11-20T09:26:36;10.65;;;7.32;;
65418;SDS011;52027;50.658;14.004;2022-11-20T09:29:01;11.70;;;7.45;;
65418;SDS011;52027;50.658;14.004;2022-11-20T09:31:26;10.98;;;7.50;;
65418;SDS011;52027;50.658;14.004;2022-11-20T09:33:51;11.88;;;7.40;;
65418;SDS011;52027;50.658;14.004;2022-11-20T09:36:17;10.93;;;7.13;;
65418;SDS011;52027;50.658;14.004;2022-11-20T09:38:44;12.70;;;7.43;;
65418;SDS011;52027;50.658;14.004;2022-11-20T09:47:07;11.05;;;7.38;;
65418;SDS011;52027;50.658;14.004;2022-11-20T09:52:19;10.77;;;7.07;;
65418;SDS011;52027;50.658;14.004;2022-11-20T09:54:47;11.15;;;7.18;;
65418;SDS011;52027;50.658;14.004;2022-11-20T09:57:14;10.77;;;7.40;;
65418;SDS011;52027;50.658;14.004;2022-11-20T09:59:53;10.77;;;7.05;;
65418;SDS011;52027;50.658;14.004;2022-11-20T10:05:03;11.80;;;7.32;;
65418;SDS011;52027;50.658;14.004;2022-11-20T10:24:08;10.77;;;7.00;;
65418;SDS011;52027;50.658;14.004;2022-11-20T10:26:51;11.85;;;7.15;;
65418;SDS011;52027;50.658;14.004;2022-11-20T10:29:21;11.68;;;7.05;;
65418;SDS011;52027;50.658;14.004;2022-11-20T10:32:00;11.05;;;7.30;;
65418;SDS011;52027;50.658;14.004;2022-11-20T10:35:05;10.93;;;7.00;;
65418;SDS011;52027;50.658;14.004;2022-11-20T10:37:26;9.82;;;6.82;;
65418;SDS011;52027;50.658;14.004;2022-11-20T10:43:01;10.27;;;6.82;;
65418;SDS011;52027;50.658;14.004;2022-11-20T10:45:36;11.23;;;7.45;;
65418;SDS011;52027;50.658;14.004;2022-11-20T10:50:32;10.48;;;7.05;;
65418;SDS011;52027;50.658;14.004;2022-11-20T10:55:54;10.35;;;6.95;;
65418;SDS011;52027;50.658;14.004;2022-11-20T11:00:51;11.35;;;7.20;;
65418;SDS011;52027;50.658;14.004;2022-11-20T11:03:20;10.52;;;6.93;;
65418;SDS011;52027;50.658;14.004;2022-11-20T11:08:37;11.07;;;7.05;;
65418;SDS011;52027;50.658;14.004;2022-11-20T11:14:03;10.02;;;6.75;;
65418;SDS011;52027;50.658;14.004;2022-11-20T11:16:52;10.23;;;6.70;;
65418;SDS011;52027;50.658;14.004;2022-11-20T11:19:19;11.25;;;7.18;;
65418;SDS011;52027;50.658;14.004;2022-11-20T11:21:49;10.32;;;6.78;;
65418;SDS011;52027;50.658;14.004;2022-11-20T11:24:24;9.68;;;6.70;;
65418;SDS011;52027;50.658;14.004;2022-11-20T11:26:52;10.43;;;7.03;;
65418;SDS011;52027;50.658;14.004;2022-11-20T11:29:31;11.27;;;7.07;;
65418;SDS011;52027;50.658;14.004;2022-11-20T11:32:05;10.10;;;6.90;;
65418;SDS011;52027;50.658;14.004;2022-11-20T11:34:32;9.90;;;6.90;;
65418;SDS011;52027;50.658;14.004;2022-11-20T11:36:58;10.52;;;6.78;;
65418;SDS011;52027;50.658;14.004;2022-11-20T11:39:26;10.27;;;6.50;;
65418;SDS011;52027;50.658;14.004;2022-11-20T11:41:53;9.75;;;6.80;;
65418;SDS011;52027;50.658;14.004;2022-11-20T11:44:19;10.90;;;6.95;;
65418;SDS011;52027;50.658;14.004;2022-11-20T11:47:11;10.52;;;6.82;;
65418;SDS011;52027;50.658;14.004;2022-11-20T11:49:44;10.18;;;6.70;;
65418;SDS011;52027;50.658;14.004;2022-11-20T11:52:12;9.70;;;6.90;;
65418;SDS011;52027;50.658;14.004;2022-11-20T11:54:48;9.27;;;6.43;;
65418;SDS011;52027;50.658;14.004;2022-11-20T11:57:24;10.80;;;6.88;;
65418;SDS011;52027;50.658;14.004;2022-11-20T11:59:55;10.40;;;6.80;;
65418;SDS011;52027;50.658;14.004;2022-11-20T12:16:15;9.10;;;6.32;;
65418;SDS011;52027;50.658;14.004;2022-11-20T12:18:43;10.80;;;6.90;;
65418;SDS011;52027;50.658;14.004;2022-11-20T12:29:37;9.63;;;6.22;;
65418;SDS011;52027;50.658;14.004;2022-11-20T12:32:15;9.77;;;6.55;;
65418;SDS011;52027;50.658;14.004;2022-11-20T12:48:46;10.88;;;6.93;;
65418;SDS011;52027;50.658;14.004;2022-11-20T12:51:24;11.18;;;6.82;;
65418;SDS011;52027;50.658;14.004;2022-11-20T12:57:09;10.40;;;6.35;;
65418;SDS011;52027;50.658;14.004;2022-11-20T13:00:02;11.38;;;6.78;;
65418;SDS011;52027;50.658;14.004;2022-11-20T13:02:41;10.10;;;6.43;;
65418;SDS011;52027;50.658;14.004;2022-11-20T13:08:33;9.63;;;6.63;;
65418;SDS011;52027;50.658;14.004;2022-11-20T13:19:13;11.10;;;6.80;;
65418;SDS011;52027;50.658;14.004;2022-11-20T13:21:44;9.95;;;6.60;;
65418;SDS011;52027;50.658;14.004;2022-11-20T13:24:22;9.57;;;6.47;;
65418;SDS011;52027;50.658;14.004;2022-11-20T13:29:36;10.32;;;6.47;;
65418;SDS011;52027;50.658;14.004;2022-11-20T13:32:03;9.00;;;6.40;;
65418;SDS011;52027;50.658;14.004;2022-11-20T13:34:31;10.02;;;6.50;;
65418;SDS011;52027;50.658;14.004;2022-11-20T13:36:57;9.80;;;6.30;;
65418;SDS011;52027;50.658;14.004;2022-11-20T13:39:32;10.65;;;7.03;;
65418;SDS011;52027;50.658;14.004;2022-11-20T13:44:47;9.60;;;6.60;;
65418;SDS011;52027;50.658;14.004;2022-11-20T13:47:25;9.40;;;6.25;;
65418;SDS011;52027;50.658;14.004;2022-11-20T13:49:52;9.35;;;6.32;;
65418;SDS011;52027;50.658;14.004;2022-11-20T14:00:45;9.25;;;6.50;;
65418;SDS011;52027;50.658;14.004;2022-11-20T14:05:55;10.68;;;7.03;;
65418;SDS011;52027;50.658;14.004;2022-11-20T14:08:47;9.55;;;6.43;;
65418;SDS011;52027;50.658;14.004;2022-11-20T14:11:17;10.00;;;6.45;;
65418;SDS011;52027;50.658;14.004;2022-11-20T14:13:54;9.15;;;6.13;;
65418;SDS011;52027;50.658;14.004;2022-11-20T14:16:26;8.70;;;6.22;;
65418;SDS011;52027;50.658;14.004;2022-11-20T14:18:54;10.88;;;6.80;;
65418;SDS011;52027;50.658;14.004;2022-11-20T14:21:21;10.13;;;6.70;;
65418;SDS011;52027;50.658;14.004;2022-11-20T14:24:33;9.43;;;6.53;;
65418;SDS011;52027;50.658;14.004;2022-11-20T14:26:45;9.57;;;6.60;;
65418;SDS011;52027;50.658;14.004;2022-11-20T14:31:42;10.88;;;6.93;;
65418;SDS011;52027;50.658;14.004;2022-11-20T14:34:18;9.98;;;6.60;;
65418;SDS011;52027;50.658;14.004;2022-11-20T14:36:46;9.55;;;6.53;;
65418;SDS011;52027;50.658;14.004;2022-11-20T14:39:19;9.90;;;6.57;;
65418;SDS011;52027;50.658;14.004;2022-11-20T14:41:52;10.10;;;6.78;;
65418;SDS011;52027;50.658;14.004;2022-11-20T14:44:19;9.98;;;6.80;;
65418;SDS011;52027;50.658;14.004;2022-11-20T14:46:48;9.20;;;6.53;;
65418;SDS011;52027;50.658;14.004;2022-11-20T14:49:16;10.40;;;6.60;;
65418;SDS011;52027;50.658;14.004;2022-11-20T14:51:41;10.48;;;6.72;;
65418;SDS011;52027;50.658;14.004;2022-11-20T14:54:17;10.30;;;6.65;;
65418;SDS011;52027;50.658;14.004;2022-11-20T14:56:53;10.43;;;6.65;;
65418;SDS011;52027;50.658;14.004;2022-11-20T14:59:24;10.02;;;6.55;;
65418;SDS011;52027;50.658;14.004;2022-11-20T15:02:06;10.73;;;6.70;;
65418;SDS011;52027;50.658;14.004;2022-11-20T15:04:56;9.77;;;6.68;;
65418;SDS011;52027;50.658;14.004;2022-11-20T15:07:34;10.85;;;6.60;;
65418;SDS011;52027;50.658;14.004;2022-11-20T15:10:02;10.05;;;6.55;;
65418;SDS011;52027;50.658;14.004;2022-11-20T15:12:31;10.18;;;6.63;;
65418;SDS011;52027;50.658;14.004;2022-11-20T15:14:57;11.15;;;6.70;;
65418;SDS011;52027;50.658;14.004;2022-11-20T15:17:23;10.57;;;6.95;;
65418;SDS011;52027;50.658;14.004;2022-11-20T15:19:49;10.00;;;6.78;;
65418;SDS011;52027;50.658;14.004;2022-11-20T15:22:14;10.43;;;6.80;;
65418;SDS011;52027;50.658;14.004;2022-11-20T15:24:41;10.65;;;6.97;;
65418;SDS011;52027;50.658;14.004;2022-11-20T15:27:07;9.95;;;6.60;;
65418;SDS011;52027;50.658;14.004;2022-11-20T15:29:33;10.32;;;6.68;;
65418;SDS011;52027;50.658;14.004;2022-11-20T15:31:58;11.38;;;6.90;;
65418;SDS011;52027;50.658;14.004;2022-11-20T15:34:26;10.65;;;6.75;;
65418;SDS011;52027;50.658;14.004;2022-11-20T15:36:52;10.32;;;6.50;;
65418;SDS011;52027;50.658;14.004;2022-11-20T15:39:18;10.18;;;6.63;;
65418;SDS011;52027;50.658;14.004;2022-11-20T15:41:43;10.68;;;6.47;;
65418;SDS011;52027;50.658;14.004;2022-11-20T15:44:09;10.68;;;6.65;;
65418;SDS011;52027;50.658;14.004;2022-11-20T15:46:37;10.68;;;7.28;;
65418;SDS011;52027;50.658;14.004;2022-11-20T15:49:10;10.10;;;6.80;;
65418;SDS011;52027;50.658;14.004;2022-11-20T15:51:38;9.40;;;6.38;;
65418;SDS011;52027;50.658;14.004;2022-11-20T15:54:24;11.55;;;7.13;;
65418;SDS011;52027;50.658;14.004;2022-11-20T15:56:50;10.65;;;6.80;;
65418;SDS011;52027;50.658;14.004;2022-11-20T15:59:18;10.63;;;6.80;;
65418;SDS011;52027;50.658;14.004;2022-11-20T16:01:44;10.07;;;6.63;;
65418;SDS011;52027;50.658;14.004;2022-11-20T16:04:13;11.15;;;6.85;;
65418;SDS011;52027;50.658;14.004;2022-11-20T16:06:41;10.05;;;6.78;;
65418;SDS011;52027;50.658;14.004;2022-11-20T16:09:07;10.38;;;7.18;;
65418;SDS011;52027;50.658;14.004;2022-11-20T16:11:33;10.45;;;6.85;;
65418;SDS011;52027;50.658;14.004;2022-11-20T16:14:00;10.18;;;6.90;;
65418;SDS011;52027;50.658;14.004;2022-11-20T16:16:44;10.30;;;6.78;;
65418;SDS011;52027;50.658;14.004;2022-11-20T16:19:10;10.85;;;7.38;;
65418;SDS011;52027;50.658;14.004;2022-11-20T16:21:37;10.65;;;6.93;;
65418;SDS011;52027;50.658;14.004;2022-11-20T16:24:05;10.30;;;7.22;;
65418;SDS011;52027;50.658;14.004;2022-11-20T16:26:31;10.07;;;6.78;;
65418;SDS011;52027;50.658;14.004;2022-11-20T16:29:01;10.82;;;7.03;;
65418;SDS011;52027;50.658;14.004;2022-11-20T16:31:27;10.00;;;6.72;;